createdAt,value
2018-12-04T00:01:30.436Z,99624.80
2018-12-04T00:06:33.851Z,99639.58
2018-12-04T00:11:37.259Z,99660.45
2018-12-04T00:16:40.586Z,99682.10
2018-12-04T00:21:44.021Z,99700.75
2018-12-04T00:26:47.424Z,99717.27
2018-12-04T00:31:50.861Z,99732.42
2018-12-04T00:36:54.288Z,99742.33
2018-12-04T00:41:57.607Z,99748.42
2018-12-04T00:47:00.996Z,99769.17
2018-12-04T00:52:04.383Z,99786.99
2018-12-04T00:57:07.950Z,99811.72
2018-12-04T01:02:18.752Z,99830.12
2018-12-04T01:07:22.177Z,99836.76
2018-12-04T01:12:25.579Z,99846.81
2018-12-04T01:17:29.167Z,99861.16
2018-12-04T01:22:32.527Z,99881.24
2018-12-04T01:27:35.973Z,99907.59
2018-12-04T01:32:39.380Z,99924.06
2018-12-04T01:37:42.911Z,99939.23
2018-12-04T01:42:46.274Z,99956.63
2018-12-04T01:47:49.707Z,99970.92
2018-12-04T01:52:53.125Z,99990.07
2018-12-04T01:58:00.304Z,100007.44
2018-12-04T02:03:03.725Z,100020.08
2018-12-04T02:08:07.130Z,100026.63
2018-12-04T02:13:10.495Z,100044.44
2018-12-04T02:18:13.953Z,100052.77
2018-12-04T02:23:17.369Z,100063.23
2018-12-04T02:28:20.737Z,100078.36
2018-12-04T02:33:24.125Z,100089.13
2018-12-04T02:38:27.484Z,100098.23
2018-12-04T02:43:30.857Z,100112.95
2018-12-04T02:48:37.148Z,100126.34
2018-12-04T02:53:40.616Z,100122.84
2018-12-04T02:58:43.994Z,100136.65
2018-12-04T03:03:47.451Z,100150.52
2018-12-04T03:08:51.126Z,100160.44
2018-12-04T03:13:54.566Z,100175.97
2018-12-04T03:18:57.986Z,100187.62
2018-12-04T03:24:01.361Z,100188.52
2018-12-04T03:29:04.952Z,100197.59
2018-12-04T03:34:08.375Z,100212.73
2018-12-04T03:39:11.977Z,100230.95
2018-12-04T03:44:15.294Z,100246.91
2018-12-04T03:49:18.758Z,100242.67
2018-12-04T03:54:22.131Z,100252.70
2018-12-04T03:59:25.733Z,100261.86
2018-12-04T04:04:29.385Z,100267.09
2018-12-04T04:09:33.018Z,100277.98
2018-12-04T04:14:36.427Z,100283.62
2018-12-04T04:19:39.788Z,100294.49
2018-12-04T04:24:43.224Z,100312.14
2018-12-04T04:29:46.696Z,100319.45
2018-12-04T04:34:50.045Z,100319.42
2018-12-04T04:39:53.448Z,100337.97
2018-12-04T04:44:56.868Z,100342.75
2018-12-04T04:50:00.194Z,100357.41
2018-12-04T04:55:03.671Z,100365.20
2018-12-04T05:00:08.079Z,100385.99
2018-12-04T05:05:24.201Z,100386.49
2018-12-04T05:10:27.687Z,100403.37
2018-12-04T05:15:31.154Z,100404.23
2018-12-04T05:20:34.559Z,100406.84
2018-12-04T05:25:37.975Z,100415.92
2018-12-04T05:30:41.395Z,100434.91
2018-12-04T05:35:44.766Z,100434.91
2018-12-04T05:40:48.213Z,100455.20
2018-12-04T05:45:51.666Z,100464.27
2018-12-04T05:50:55.057Z,100467.72
2018-12-04T05:55:58.394Z,100480.25
2018-12-04T06:01:01.939Z,100494.02
2018-12-04T06:06:05.390Z,100504.81
2018-12-04T06:11:08.867Z,100522.03
2018-12-04T06:16:12.234Z,100536.70
2018-12-04T06:21:15.659Z,100546.19
2018-12-04T06:26:19.142Z,100562.97
2018-12-04T06:31:22.747Z,100573.75
2018-12-04T06:36:26.162Z,100588.85
2018-12-04T06:41:29.564Z,100602.59
2018-12-04T06:46:33.020Z,100615.92
2018-12-04T06:51:36.454Z,100624.50
2018-12-04T06:56:39.878Z,100645.29
2018-12-04T07:01:43.297Z,100655.67
2018-12-04T07:06:46.753Z,100671.63
2018-12-04T07:11:50.164Z,100683.23
2018-12-04T07:16:53.781Z,100703.52
2018-12-04T07:21:57.140Z,100709.56
2018-12-04T07:27:00.528Z,100726.47
2018-12-04T07:32:03.893Z,100742.05
2018-12-04T07:37:07.288Z,100742.95
2018-12-04T07:42:30.053Z,100758.09
2018-12-04T07:47:52.861Z,100763.61
2018-12-04T07:52:56.323Z,100776.13
2018-12-04T07:57:59.689Z,100788.59
2018-12-04T08:03:03.099Z,100798.08
2018-12-04T08:08:06.455Z,100803.26
2018-12-04T08:13:49.227Z,100823.48
2018-12-04T08:18:52.631Z,100828.66
2018-12-04T08:23:56.052Z,100849.84
2018-12-04T08:28:59.415Z,100858.87
2018-12-04T08:34:02.833Z,100869.69
2018-12-04T08:39:12.942Z,100881.36
2018-12-04T08:44:11.198Z,100890.89
2018-12-04T08:49:14.579Z,100904.33
2018-12-04T08:54:18.075Z,100908.64
2018-12-04T08:59:21.528Z,100922.53
2018-12-04T09:04:24.941Z,100933.38
2018-12-04T09:09:28.322Z,100942.92
2018-12-04T09:14:31.729Z,100958.15
2018-12-04T09:19:35.109Z,100970.30
2018-12-04T09:24:38.503Z,100980.62
2018-12-04T09:29:41.848Z,100996.20
2018-12-04T09:34:45.160Z,101017.66
2018-12-04T09:39:48.559Z,101023.48
2018-12-04T09:44:52.028Z,101027.36
2018-12-04T09:49:55.368Z,101042.55
2018-12-04T09:54:58.878Z,101051.48
2018-12-04T10:00:02.310Z,101057.78
2018-12-04T10:05:05.915Z,101068.27
2018-12-04T10:10:09.587Z,101081.29
2018-12-04T10:15:12.961Z,101083.92
2018-12-04T10:20:16.366Z,101096.91
2018-12-04T10:25:19.679Z,101100.90
2018-12-04T10:30:31.575Z,101102.27
2018-12-04T10:35:28.859Z,101115.22
2018-12-04T10:40:32.233Z,101113.59
2018-12-04T10:45:35.552Z,101124.41
2018-12-04T10:50:38.994Z,101122.69
2018-12-04T10:55:42.339Z,101128.36
2018-12-04T11:01:04.752Z,101131.05
2018-12-04T11:06:08.135Z,101144.51
2018-12-04T11:11:11.500Z,101150.89
2018-12-04T11:16:14.844Z,101151.13
2018-12-04T11:21:18.244Z,101156.37
2018-12-04T11:26:21.620Z,101160.81
2018-12-04T11:31:25.017Z,101168.17
2018-12-04T11:36:28.406Z,101180.34
2018-12-04T11:41:51.184Z,101185.57
2018-12-04T11:46:54.906Z,101186.75
2018-12-04T11:51:58.356Z,101197.17
2018-12-04T11:57:01.682Z,101207.17
2018-12-04T12:02:10.701Z,101215.40
2018-12-04T12:07:08.476Z,101226.26
2018-12-04T12:12:11.899Z,101220.68
2018-12-04T12:17:15.269Z,101231.08
2018-12-04T12:22:19.104Z,101222.88
2018-12-04T12:27:22.342Z,101234.92
2018-12-04T12:32:26.018Z,101236.22
2018-12-04T12:37:29.381Z,101250.95
2018-12-04T12:42:32.784Z,101251.03
2018-12-04T12:47:36.185Z,101261.38
2018-12-04T12:52:39.660Z,101258.34
2018-12-04T12:57:43.063Z,101274.36
2018-12-04T13:02:46.475Z,101279.17
2018-12-04T13:07:49.835Z,101286.06
2018-12-04T13:12:53.148Z,101301.65
2018-12-04T13:17:56.541Z,101309.88
2018-12-04T13:22:59.969Z,101311.17
2018-12-04T13:28:03.331Z,101319.78
2018-12-04T13:33:06.734Z,101318.47
2018-12-04T13:38:10.140Z,101322.75
2018-12-04T13:43:13.657Z,101322.31
2018-12-04T13:48:17.061Z,101327.45
2018-12-04T13:53:20.482Z,101326.58
2018-12-04T13:58:23.907Z,101331.80
2018-12-04T14:03:27.310Z,101351.59
2018-12-04T14:08:30.718Z,101362.79
2018-12-04T14:13:34.140Z,101370.94
2018-12-04T14:18:37.508Z,101383.05
2018-12-04T14:23:40.845Z,101387.75
2018-12-04T14:28:44.313Z,101396.75
2018-12-04T14:33:47.717Z,101407.50
2018-12-04T14:38:51.091Z,101410.44
2018-12-04T14:43:54.505Z,101426.45
2018-12-04T14:48:57.908Z,101441.86
2018-12-04T14:54:01.246Z,101456.84
2018-12-04T14:59:24.936Z,101460.56
2018-12-04T15:04:28.375Z,101469.89
2018-12-04T15:14:40.586Z,101489.87
2018-12-04T15:19:43.990Z,101499.14
2018-12-04T15:24:47.379Z,101513.21
2018-12-04T15:29:50.791Z,101517.55
2018-12-04T15:34:54.222Z,101529.73
2018-12-04T15:39:57.536Z,101535.57
2018-12-04T15:45:00.936Z,101538.52
2018-12-04T15:50:04.928Z,101552.77
2018-12-04T15:55:08.249Z,101560.70
2018-12-04T16:05:36.218Z,101560.86
2018-12-04T16:10:39.621Z,101557.14
2018-12-04T16:15:42.989Z,101566.01
2018-12-04T16:20:46.351Z,101572.29
2018-12-04T16:25:49.820Z,101577.22
2018-12-04T16:30:53.302Z,101576.13
2018-12-04T16:35:56.703Z,101582.48
2018-12-04T16:41:00.081Z,101591.81
2018-12-04T16:46:03.517Z,101589.84
2018-12-04T16:51:07.519Z,101588.37
2018-12-04T16:56:10.844Z,101590.95
2018-12-04T17:01:14.367Z,101606.61
2018-12-04T17:06:17.731Z,101610.48
2018-12-04T17:11:40.479Z,101609.00
2018-12-04T17:16:43.963Z,101615.97
2018-12-04T17:21:47.326Z,101614.67
2018-12-04T17:26:50.719Z,101627.02
2018-12-04T17:31:54.132Z,101635.27
2018-12-04T17:36:57.459Z,101645.45
2018-12-04T17:42:00.874Z,101655.31
2018-12-04T17:47:04.280Z,101660.79
2018-12-04T17:52:07.710Z,101669.64
2018-12-04T17:57:11.136Z,101666.28
2018-12-04T18:02:14.574Z,101658.49
2018-12-04T18:07:17.945Z,101661.53
2018-12-04T18:12:21.352Z,101663.84
2018-12-04T18:17:24.817Z,101674.22
2018-12-04T18:22:28.192Z,101672.47
2018-12-04T18:27:31.516Z,101671.73
2018-12-04T18:32:34.889Z,101670.18
2018-12-04T18:37:38.307Z,101670.46
2018-12-04T18:42:41.663Z,101676.44
2018-12-04T18:53:13.512Z,101689.08
2018-12-04T18:58:17.115Z,101682.05
2018-12-04T19:03:20.495Z,101686.79
2018-12-04T19:08:42.985Z,101683.42
2018-12-04T19:13:46.420Z,101701.30
2018-12-04T19:18:49.772Z,101705.88
2018-12-04T19:23:53.255Z,101715.98
2018-12-04T19:28:56.614Z,101731.06
2018-12-04T19:34:00.030Z,101738.59
2018-12-04T19:39:04.097Z,101746.25
2018-12-04T19:44:07.605Z,101750.24
2018-12-04T19:49:11.039Z,101751.78
2018-12-04T19:54:14.476Z,101763.09
2018-12-04T19:59:17.894Z,101770.61
2018-12-04T20:04:21.351Z,101777.45
2018-12-04T20:09:24.793Z,101782.13
2018-12-04T20:14:28.185Z,101781.52
2018-12-04T20:19:31.600Z,101780.84
2018-12-04T20:24:35.302Z,101784.76
2018-12-04T20:29:38.868Z,101793.34
2018-12-04T20:34:44.657Z,101799.89
2018-12-04T20:45:00.428Z,101806.49
2018-12-04T20:50:04.483Z,101801.70
2018-12-04T21:00:30.360Z,101804.66
2018-12-04T21:10:44.395Z,101807.78
2018-12-04T21:26:37.697Z,101802.70
2018-12-04T21:32:00.630Z,101811.59
2018-12-04T21:37:23.153Z,101812.89
2018-12-04T21:42:40.318Z,101820.98
2018-12-04T21:53:08.391Z,101841.25
2018-12-04T21:58:13.632Z,101840.06
2018-12-04T22:03:18.739Z,101833.61
2018-12-04T22:23:53.739Z,101839.63
2018-12-04T22:34:28.130Z,101851.56
2018-12-04T22:55:00.921Z,101873.22
2018-12-04T23:00:08.912Z,101868.78
2018-12-04T23:15:39.959Z,101860.84
2018-12-04T23:25:55.731Z,101846.69
2018-12-04T23:31:19.362Z,101844.53
2018-12-04T23:36:38.432Z,101852.21
2018-12-04T23:41:56.570Z,101852.05
2018-12-04T23:46:59.994Z,101853.89
2018-12-04T23:52:03.362Z,101857.00
2018-12-04T23:57:06.863Z,101854.21
